Time;durP1;ratioP1;P1;durP2;ratioP2;P2;SDS_P1;SDS_P2;PMS_P1;PMS_P2;Temp;Humidity;BMP_temperature;BMP_pressure;BME280_temperature;BME280_humidity;BME280_pressure;Samples;Min_cycle;Max_cycle;Signal;HPM_P1;HPM_P2
2022/09/06 00:00:53;;;;;;;2.57;2.40;;;17.70;99.90;;;;;;474783;250;29311;-68
2022/09/06 00:02:55;;;;;;;2.37;2.27;;;17.70;99.90;;;;;;479030;248;29288;-70
2022/09/06 00:04:56;;;;;;;2.43;2.30;;;17.80;99.90;;;;;;474786;250;30102;-68
2022/09/06 00:06:57;;;;;;;2.50;2.40;;;17.80;99.90;;;;;;478916;248;28769;-69
2022/09/06 00:08:58;;;;;;;2.30;2.20;;;17.90;99.90;;;;;;474797;249;28898;-70
2022/09/06 00:11:00;;;;;;;2.47;2.30;;;17.90;99.90;;;;;;479066;248;28760;-68
2022/09/06 00:13:01;;;;;;;2.57;2.47;;;17.90;99.90;;;;;;474811;250;28934;-70
2022/09/06 00:15:02;;;;;;;2.83;2.63;;;17.90;99.90;;;;;;479029;245;28835;-69
2022/09/06 00:17:03;;;;;;;2.80;2.60;;;17.80;99.90;;;;;;474664;249;28923;-69
2022/09/06 00:19:05;;;;;;;2.50;2.40;;;17.80;99.90;;;;;;479021;248;28880;-72
2022/09/06 00:21:06;;;;;;;2.57;2.37;;;17.80;99.90;;;;;;474784;250;28967;-68
2022/09/06 00:23:07;;;;;;;2.50;2.40;;;17.90;99.90;;;;;;478999;248;28821;-70
2022/09/06 00:25:09;;;;;;;2.63;2.50;;;17.90;99.90;;;;;;474780;249;29364;-69
2022/09/06 00:27:10;;;;;;;2.30;2.20;;;17.90;99.90;;;;;;478939;248;29221;-69
2022/09/06 00:29:11;;;;;;;2.37;2.27;;;17.90;99.90;;;;;;474781;249;29469;-70
2022/09/06 00:31:12;;;;;;;2.60;2.40;;;17.80;99.90;;;;;;479031;248;28848;-69
2022/09/06 00:33:13;;;;;;;3.23;3.03;;;17.60;99.90;;;;;;474672;249;28815;-70
2022/09/06 00:35:15;;;;;;;3.40;3.20;;;17.60;99.90;;;;;;479027;248;28841;-69
2022/09/06 00:37:16;;;;;;;8.30;3.27;;;17.90;99.90;;;;;;474703;250;28788;-69
2022/09/06 00:39:17;;;;;;;5.90;3.93;;;18.30;99.90;;;;;;479054;248;28921;-71
2022/09/06 00:41:18;;;;;;;3.50;3.30;;;18.50;99.90;;;;;;474799;249;28896;-69
2022/09/06 00:43:20;;;;;;;4.10;3.80;;;18.50;99.90;;;;;;479038;248;28889;-70
2022/09/06 00:45:21;;;;;;;5.63;3.60;;;18.60;99.90;;;;;;474776;249;28829;-69
2022/09/06 00:47:22;;;;;;;5.47;3.60;;;18.70;99.90;;;;;;478899;248;28826;-69
2022/09/06 00:49:23;;;;;;;4.30;3.73;;;18.80;99.90;;;;;;474759;249;29347;-72
2022/09/06 00:51:25;;;;;;;3.97;3.13;;;18.90;99.90;;;;;;479020;248;29329;-69
2022/09/06 00:53:26;;;;;;;5.33;3.57;;;18.80;99.90;;;;;;474776;249;29313;-70
2022/09/06 00:55:27;;;;;;;4.27;3.00;;;18.80;99.90;;;;;;479003;248;28838;-69
2022/09/06 00:57:30;;;;;;;3.20;3.00;;;18.80;99.90;;;;;;474641;250;28900;-69
2022/09/06 00:59:30;;;;;;;5.00;3.00;;;18.70;99.90;;;;;;478936;248;28836;-74
2022/09/06 01:01:31;;;;;;;3.57;3.30;;;18.70;99.90;;;;;;478985;248;28799;-71
2022/09/06 01:03:32;;;;;;;4.00;3.50;;;18.60;99.90;;;;;;474769;250;28880;-70
2022/09/06 01:05:33;;;;;;;3.87;3.57;;;18.50;99.90;;;;;;478994;248;28786;-69
2022/09/06 01:07:35;;;;;;;7.87;3.80;;;18.50;99.90;;;;;;474710;250;28837;-70
2022/09/06 01:09:36;;;;;;;3.90;3.60;;;18.30;99.90;;;;;;478982;248;28931;-73
2022/09/06 01:11:37;;;;;;;3.83;3.53;;;18.10;99.90;;;;;;474761;250;28797;-70
2022/09/06 01:13:38;;;;;;;3.40;3.00;;;17.90;99.90;;;;;;479009;248;29290;-71
2022/09/06 01:15:40;;;;;;;4.53;4.13;;;17.70;99.90;;;;;;478996;245;29237;-69
2022/09/06 01:17:41;;;;;;;3.60;3.30;;;17.60;99.90;;;;;;474697;249;29481;-69
2022/09/06 01:19:42;;;;;;;7.33;4.17;;;17.50;99.90;;;;;;479034;248;29298;-72
2022/09/06 01:21:43;;;;;;;5.83;4.07;;;17.40;99.90;;;;;;474780;249;28777;-70
2022/09/06 01:23:45;;;;;;;3.60;3.30;;;17.40;99.90;;;;;;479041;248;28814;-71
2022/09/06 01:25:46;;;;;;;3.40;3.20;;;17.40;99.90;;;;;;474775;250;28897;-70
2022/09/06 01:27:47;;;;;;;3.90;3.60;;;17.30;99.90;;;;;;478930;248;28870;-69
2022/09/06 01:29:48;;;;;;;3.93;3.53;;;17.20;99.90;;;;;;474805;249;28990;-71
2022/09/06 01:31:50;;;;;;;3.70;3.40;;;17.20;99.90;;;;;;479059;248;28802;-70
2022/09/06 01:33:51;;;;;;;4.67;3.10;;;17.20;99.90;;;;;;474799;249;28920;-70
2022/09/06 01:35:52;;;;;;;4.03;3.63;;;17.10;99.90;;;;;;479032;245;28884;-69
2022/09/06 01:37:53;;;;;;;4.33;3.80;;;17.10;99.90;;;;;;474726;249;28914;-70
2022/09/06 01:39:55;;;;;;;3.53;3.27;;;17.10;99.90;;;;;;479026;248;29380;-72
2022/09/06 01:41:56;;;;;;;4.40;3.70;;;17.20;99.90;;;;;;474779;249;29336;-69
2022/09/06 01:43:57;;;;;;;3.90;3.60;;;17.30;99.90;;;;;;479055;248;29381;-71
2022/09/06 01:45:58;;;;;;;3.80;3.40;;;17.20;99.90;;;;;;474772;250;28880;-70
2022/09/06 01:48:00;;;;;;;4.83;3.33;;;17.20;99.90;;;;;;478793;244;28869;-70
2022/09/06 01:50:01;;;;;;;3.33;3.03;;;17.20;99.90;;;;;;474794;249;29008;-73
2022/09/06 01:52:02;;;;;;;3.73;3.40;;;17.30;99.90;;;;;;479021;248;28833;-70
2022/09/06 01:54:03;;;;;;;3.90;3.60;;;17.30;99.90;;;;;;474744;249;28909;-70
2022/09/06 01:56:05;;;;;;;3.23;3.03;;;17.30;99.90;;;;;;478964;248;28822;-69
2022/09/06 01:58:06;;;;;;;3.50;3.20;;;17.30;99.90;;;;;;474687;249;28921;-69
2022/09/06 02:00:10;;;;;;;3.73;3.43;;;17.30;99.90;;;;;;479037;248;28818;-73
2022/09/06 02:02:11;;;;;;;3.43;3.13;;;17.30;99.90;;;;;;474766;250;28908;-72
2022/09/06 02:04:13;;;;;;;6.00;2.90;;;17.30;99.90;;;;;;479036;248;28867;-71
2022/09/06 02:06:14;;;;;;;3.37;3.10;;;17.30;99.90;;;;;;474735;250;28907;-69
2022/09/06 02:08:15;;;;;;;5.83;3.30;;;17.30;99.90;;;;;;479009;248;28814;-69
2022/09/06 02:10:16;;;;;;;3.13;2.93;;;17.30;99.90;;;;;;474768;250;28988;-69
2022/09/06 02:12:18;;;;;;;2.93;2.77;;;17.30;99.90;;;;;;479010;248;28873;-72
2022/09/06 02:14:19;;;;;;;3.30;3.00;;;17.30;99.90;;;;;;474697;250;28956;-70
2022/09/06 02:16:20;;;;;;;3.80;3.13;;;17.20;99.90;;;;;;478850;248;29791;-71
2022/09/06 02:18:21;;;;;;;4.10;2.87;;;17.20;99.90;;;;;;474762;250;29402;-71
2022/09/06 02:20:23;;;;;;;3.97;2.93;;;17.20;99.90;;;;;;479003;248;29249;-70
2022/09/06 02:22:24;;;;;;;2.90;2.70;;;17.10;99.90;;;;;;474767;250;29497;-70
2022/09/06 02:24:25;;;;;;;2.67;2.57;;;17.10;99.90;;;;;;479007;248;28863;-70
2022/09/06 02:26:26;;;;;;;3.00;2.73;;;17.10;99.90;;;;;;474699;250;28911;-69
2022/09/06 02:28:28;;;;;;;2.93;2.73;;;17.00;99.90;;;;;;479030;248;28800;-71
2022/09/06 02:30:29;;;;;;;3.07;2.87;;;17.00;99.90;;;;;;474776;250;28887;-69
2022/09/06 02:32:30;;;;;;;3.23;3.03;;;16.90;99.90;;;;;;479007;248;28799;-70
2022/09/06 02:34:31;;;;;;;2.80;2.60;;;16.90;99.90;;;;;;474769;250;28997;-69
2022/09/06 02:36:33;;;;;;;2.67;2.57;;;16.90;99.90;;;;;;478966;248;28815;-69
2022/09/06 02:38:34;;;;;;;2.87;2.67;;;16.80;99.90;;;;;;474668;249;28904;-72
2022/09/06 02:40:35;;;;;;;2.70;2.60;;;16.80;99.90;;;;;;479018;248;28783;-69
2022/09/06 02:42:36;;;;;;;3.47;3.27;;;16.70;99.90;;;;;;474743;250;29392;-69
2022/09/06 02:44:38;;;;;;;3.30;3.10;;;16.70;99.90;;;;;;479017;248;29260;-69
2022/09/06 02:46:39;;;;;;;2.70;2.50;;;16.70;99.90;;;;;;474732;250;29398;-69
2022/09/06 02:48:40;;;;;;;2.50;2.40;;;16.70;99.90;;;;;;479028;248;28812;-72
2022/09/06 02:50:41;;;;;;;2.93;2.73;;;16.60;99.90;;;;;;474762;250;29010;-69
2022/09/06 02:52:43;;;;;;;2.90;2.70;;;16.60;99.90;;;;;;478975;248;28878;-69
2022/09/06 02:54:44;;;;;;;2.60;2.50;;;16.60;99.90;;;;;;474786;250;28950;-69
2022/09/06 02:56:45;;;;;;;5.57;2.70;;;16.60;99.90;;;;;;478967;248;28875;-69
2022/09/06 02:58:46;;;;;;;2.80;2.60;;;16.50;99.90;;;;;;474791;249;29058;-72
2022/09/06 03:00:48;;;;;;;3.73;3.20;;;16.50;99.90;;;;;;478996;248;28824;-69
2022/09/06 03:02:49;;;;;;;2.83;2.63;;;16.40;99.90;;;;;;474774;249;28895;-70
2022/09/06 03:04:50;;;;;;;2.70;2.50;;;16.40;99.90;;;;;;479009;248;28785;-69
2022/09/06 03:06:51;;;;;;;2.63;2.47;;;16.40;99.90;;;;;;474713;250;29387;-69
2022/09/06 03:08:53;;;;;;;2.77;2.57;;;16.40;99.90;;;;;;479026;248;29369;-71
2022/09/06 03:10:54;;;;;;;2.90;2.70;;;16.30;99.90;;;;;;474778;250;29346;-69
2022/09/06 03:12:55;;;;;;;2.83;2.67;;;16.20;99.90;;;;;;479005;248;28816;-69
2022/09/06 03:14:56;;;;;;;2.50;2.40;;;16.30;99.90;;;;;;474760;250;29001;-68
2022/09/06 03:16:58;;;;;;;2.37;2.23;;;16.20;99.90;;;;;;478959;248;28765;-69
2022/09/06 03:18:59;;;;;;;3.43;3.10;;;16.20;99.90;;;;;;474765;249;28983;-71
2022/09/06 03:21:00;;;;;;;2.20;2.10;;;16.20;99.90;;;;;;479035;248;28848;-69
2022/09/06 03:23:01;;;;;;;2.60;2.40;;;16.20;99.90;;;;;;474765;250;28918;-69
2022/09/06 03:25:03;;;;;;;2.57;2.40;;;16.20;99.90;;;;;;479044;248;28813;-72
2022/09/06 03:27:04;;;;;;;2.67;2.47;;;16.20;99.90;;;;;;474770;250;28879;-68
2022/09/06 03:29:05;;;;;;;2.70;2.50;;;16.10;99.90;;;;;;479039;248;28805;-69
2022/09/06 03:31:07;;;;;;;2.50;2.40;;;16.00;99.90;;;;;;474780;249;29366;-69
2022/09/06 03:33:08;;;;;;;2.70;2.50;;;16.00;99.90;;;;;;479026;248;29260;-69
2022/09/06 03:35:09;;;;;;;2.77;2.60;;;16.00;99.90;;;;;;474783;249;29391;-72
2022/09/06 03:37:10;;;;;;;2.73;2.53;;;16.00;99.90;;;;;;479009;248;29264;-69
2022/09/06 03:39:12;;;;;;;2.97;2.77;;;15.90;99.90;;;;;;474767;249;28996;-69
2022/09/06 03:41:13;;;;;;;3.30;3.00;;;15.90;99.90;;;;;;478991;248;28766;-68
2022/09/06 03:43:14;;;;;;;2.67;2.57;;;15.90;99.90;;;;;;473751;249;28892;-69
2022/09/06 03:45:15;;;;;;;2.50;2.40;;;15.80;99.90;;;;;;477807;248;28920;-70
2022/09/06 03:47:17;;;;;;;2.23;2.13;;;15.80;99.90;;;;;;473611;250;28862;-69
2022/09/06 03:49:18;;;;;;;2.50;2.30;;;15.80;99.90;;;;;;478761;248;28878;-68
2022/09/06 03:51:19;;;;;;;2.87;2.60;;;15.80;99.90;;;;;;474698;250;29291;-72
2022/09/06 03:53:20;;;;;;;2.70;2.50;;;15.80;99.90;;;;;;479018;248;28773;-69
2022/09/06 03:55:22;;;;;;;2.83;2.63;;;15.80;99.90;;;;;;474774;249;28923;-70
2022/09/06 03:57:23;;;;;;;2.97;2.80;;;15.70;99.90;;;;;;478935;248;29369;-68
2022/09/06 03:59:24;;;;;;;2.60;2.50;;;15.70;99.90;;;;;;474753;249;29478;-69
2022/09/06 04:01:25;;;;;;;2.97;2.77;;;15.70;99.90;;;;;;479019;248;30003;-69
2022/09/06 04:03:27;;;;;;;2.67;2.57;;;15.70;99.90;;;;;;474784;250;28852;-68
2022/09/06 04:05:28;;;;;;;2.57;2.47;;;15.60;99.90;;;;;;479036;248;28801;-71
2022/09/06 04:07:29;;;;;;;2.43;2.30;;;15.50;99.90;;;;;;474703;250;28869;-69
2022/09/06 04:09:30;;;;;;;2.33;2.23;;;15.50;99.90;;;;;;479010;246;28890;-69
2022/09/06 04:11:32;;;;;;;2.70;2.50;;;15.50;99.90;;;;;;474758;249;28902;-69
2022/09/06 04:13:33;;;;;;;2.40;2.30;;;15.50;99.90;;;;;;479009;248;28864;-69
2022/09/06 04:15:35;;;;;;;2.30;2.20;;;15.50;99.90;;;;;;474775;249;29002;-71
2022/09/06 04:17:35;;;;;;;2.53;2.43;;;15.50;99.90;;;;;;478898;248;28772;-69
2022/09/06 04:19:37;;;;;;;2.67;2.47;;;15.50;99.90;;;;;;474761;249;28908;-69
2022/09/06 04:21:38;;;;;;;2.30;2.20;;;15.50;99.90;;;;;;479019;248;29270;-68
2022/09/06 04:23:39;;;;;;;2.47;2.37;;;15.50;99.90;;;;;;474770;249;29342;-69
2022/09/06 04:25:40;;;;;;;2.70;2.50;;;15.50;99.90;;;;;;478778;248;29365;-71
2022/09/06 04:27:42;;;;;;;2.73;2.53;;;15.40;99.90;;;;;;474704;249;29385;-69
2022/09/06 04:29:43;;;;;;;2.70;2.50;;;15.40;99.90;;;;;;478995;248;28792;-69
2022/09/06 04:31:44;;;;;;;2.77;2.57;;;15.40;99.90;;;;;;474762;250;28862;-69
2022/09/06 04:33:45;;;;;;;2.80;2.60;;;15.30;99.90;;;;;;479001;248;28860;-68
2022/09/06 04:35:47;;;;;;;3.00;2.80;;;15.40;99.90;;;;;;474769;250;28891;-71
2022/09/06 04:37:48;;;;;;;2.53;2.43;;;15.40;99.90;;;;;;478951;248;28900;-68
2022/09/06 04:39:49;;;;;;;2.57;2.40;;;15.40;99.90;;;;;;474771;250;28878;-69
2022/09/06 04:41:50;;;;;;;3.30;3.10;;;15.30;99.90;;;;;;479033;248;28846;-69
2022/09/06 04:43:52;;;;;;;2.90;2.70;;;15.30;99.90;;;;;;474753;249;28916;-68
2022/09/06 04:45:53;;;;;;;2.63;2.53;;;15.30;99.90;;;;;;479013;248;29356;-71
2022/09/06 04:47:54;;;;;;;3.00;2.80;;;15.20;99.90;;;;;;474730;250;29259;-69
2022/09/06 04:49:55;;;;;;;3.13;2.93;;;15.20;99.90;;;;;;479007;248;29302;-72
2022/09/06 04:51:57;;;;;;;2.80;2.70;;;15.20;99.90;;;;;;474767;250;29314;-69
2022/09/06 04:53:58;;;;;;;2.60;2.50;;;15.10;99.90;;;;;;479022;248;28789;-69
2022/09/06 04:55:59;;;;;;;2.77;2.57;;;15.20;99.90;;;;;;474723;249;28808;-73
2022/09/06 04:58:00;;;;;;;3.20;3.00;;;15.20;99.90;;;;;;478964;248;28769;-68
2022/09/06 05:00:02;;;;;;;2.60;2.50;;;15.20;99.90;;;;;;474761;250;28915;-69
2022/09/06 05:02:03;;;;;;;3.10;2.90;;;15.20;99.90;;;;;;479053;248;28818;-69
2022/09/06 05:04:04;;;;;;;2.83;2.73;;;15.20;99.90;;;;;;474813;249;28885;-68
2022/09/06 05:06:05;;;;;;;2.83;2.63;;;15.20;99.90;;;;;;479014;248;28808;-69
2022/09/06 05:08:07;;;;;;;3.07;2.80;;;15.20;99.90;;;;;;474799;250;28871;-69
2022/09/06 05:10:08;;;;;;;4.37;2.70;;;15.20;99.90;;;;;;479053;248;28844;-69
2022/09/06 05:12:09;;;;;;;2.53;2.43;;;15.20;99.90;;;;;;474794;249;29472;-72
2022/09/06 05:14:10;;;;;;;3.10;2.90;;;15.10;99.90;;;;;;479037;248;29320;-69
2022/09/06 05:16:12;;;;;;;2.67;2.57;;;15.10;99.90;;;;;;474729;250;29457;-68
2022/09/06 05:18:13;;;;;;;2.60;2.50;;;15.10;99.90;;;;;;479030;248;28762;-69
2022/09/06 05:20:14;;;;;;;2.30;2.20;;;15.20;99.90;;;;;;474706;250;28894;-69
2022/09/06 05:22:15;;;;;;;2.70;2.50;;;15.20;99.90;;;;;;479050;248;28807;-71
2022/09/06 05:24:17;;;;;;;2.70;2.50;;;15.20;99.90;;;;;;474786;249;28863;-68
2022/09/06 05:26:18;;;;;;;2.60;2.50;;;15.20;99.90;;;;;;478944;248;28860;-70
2022/09/06 05:28:19;;;;;;;2.70;2.60;;;15.20;99.90;;;;;;474779;250;28582;-68
2022/09/06 05:30:20;;;;;;;2.40;2.30;;;15.30;99.90;;;;;;479022;248;28836;-69
2022/09/06 05:32:22;;;;;;;2.37;2.27;;;15.30;99.90;;;;;;474790;249;28934;-71
2022/09/06 05:34:23;;;;;;;2.50;2.40;;;15.30;99.90;;;;;;479019;248;28899;-68
2022/09/06 05:36:24;;;;;;;2.63;2.50;;;15.30;99.90;;;;;;474711;249;29351;-69
2022/09/06 05:38:25;;;;;;;2.83;2.63;;;15.30;99.90;;;;;;479026;248;29267;-68
2022/09/06 05:40:27;;;;;;;3.07;2.87;;;15.30;99.90;;;;;;474771;250;29317;-70
2022/09/06 05:42:28;;;;;;;2.77;2.63;;;15.40;99.90;;;;;;479040;248;28869;-69
2022/09/06 05:44:29;;;;;;;2.50;2.40;;;15.50;99.90;;;;;;474798;249;28863;-68
2022/09/06 05:46:30;;;;;;;2.37;2.27;;;15.50;99.90;;;;;;478964;248;28828;-70
2022/09/06 05:48:32;;;;;;;2.50;2.40;;;15.50;99.90;;;;;;474765;249;28897;-68
2022/09/06 05:50:33;;;;;;;3.13;2.93;;;15.50;99.90;;;;;;479017;248;28814;-69
2022/09/06 05:52:35;;;;;;;2.60;2.50;;;15.60;99.90;;;;;;474776;249;29006;-71
2022/09/06 05:54:35;;;;;;;2.60;2.50;;;15.60;99.90;;;;;;479024;245;28781;-69
2022/09/06 05:56:37;;;;;;;2.63;2.43;;;15.60;99.90;;;;;;474722;249;28930;-69
2022/09/06 05:58:38;;;;;;;2.40;2.30;;;15.70;99.90;;;;;;479030;248;28789;-69
2022/09/06 06:00:39;;;;;;;2.30;2.20;;;15.70;99.90;;;;;;474769;250;29412;-69
2022/09/06 06:02:40;;;;;;;2.30;2.20;;;15.70;99.90;;;;;;479039;248;29287;-72
2022/09/06 06:04:42;;;;;;;2.47;2.37;;;15.70;99.90;;;;;;474780;250;29361;-69
2022/09/06 06:06:43;;;;;;;2.30;2.20;;;15.70;99.90;;;;;;478969;246;29324;-69
2022/09/06 06:08:44;;;;;;;2.40;2.30;;;15.80;99.90;;;;;;474789;250;28856;-69
2022/09/06 06:10:45;;;;;;;2.50;2.40;;;15.80;99.90;;;;;;479022;248;28765;-69
2022/09/06 06:12:47;;;;;;;2.80;2.27;;;15.90;99.90;;;;;;474749;250;28990;-72
2022/09/06 06:14:48;;;;;;;2.30;2.20;;;16.00;99.90;;;;;;479034;248;28766;-68
2022/09/06 06:16:49;;;;;;;2.40;2.30;;;16.10;99.90;;;;;;474721;250;28980;-69
2022/09/06 06:18:50;;;;;;;2.50;2.37;;;16.10;99.90;;;;;;479010;248;28814;-68
2022/09/06 06:20:52;;;;;;;2.23;2.13;;;16.20;99.90;;;;;;474793;249;28903;-68
2022/09/06 06:22:53;;;;;;;2.30;2.20;;;16.20;99.90;;;;;;479026;248;28910;-70
2022/09/06 06:24:54;;;;;;;2.70;2.60;;;16.30;99.90;;;;;;474781;249;29395;-69
2022/09/06 06:26:55;;;;;;;3.10;2.90;;;16.30;99.90;;;;;;478934;248;29369;-70
2022/09/06 06:29:00;;;;;;;2.63;2.53;;;16.40;99.90;;;;;;474782;250;29369;-73
2022/09/06 06:30:58;;;;;;;3.10;2.90;;;16.40;99.90;;;;;;478862;248;29228;-69
2022/09/06 06:33:01;;;;;;;2.67;2.57;;;16.50;99.90;;;;;;479021;248;28907;-70
2022/09/06 06:35:00;;;;;;;3.17;2.87;;;16.60;99.90;;;;;;474735;250;28872;-68
2022/09/06 06:37:02;;;;;;;2.60;2.50;;;16.70;99.90;;;;;;478955;248;28821;-69
2022/09/06 06:39:03;;;;;;;2.67;2.57;;;16.70;99.90;;;;;;474778;250;28916;-72
2022/09/06 06:41:04;;;;;;;2.90;2.70;;;16.70;99.90;;;;;;478983;248;28766;-68
2022/09/06 06:43:09;;;;;;;2.90;2.70;;;16.70;99.90;;;;;;474776;249;28930;-70
2022/09/06 06:45:07;;;;;;;2.83;2.63;;;16.80;99.90;;;;;;478816;248;28777;-70
2022/09/06 06:47:08;;;;;;;2.63;2.37;;;16.80;99.90;;;;;;478979;248;28769;-69
2022/09/06 06:49:10;;;;;;;2.47;2.30;;;16.80;99.90;;;;;;474804;249;28911;-71
2022/09/06 06:51:10;;;;;;;2.63;2.53;;;16.90;99.90;;;;;;479037;246;29226;-69
2022/09/06 06:53:12;;;;;;;2.60;2.50;;;16.90;99.90;;;;;;474800;250;29496;-69
2022/09/06 06:55:13;;;;;;;2.40;2.30;;;17.10;99.90;;;;;;479021;248;29342;-69
2022/09/06 06:57:14;;;;;;;2.40;2.20;;;17.10;99.90;;;;;;474756;249;28952;-69
2022/09/06 06:59:15;;;;;;;2.43;2.33;;;17.10;99.90;;;;;;479040;248;28880;-73
2022/09/06 07:01:17;;;;;;;2.43;2.33;;;17.20;99.90;;;;;;474774;250;28871;-69
2022/09/06 07:03:18;;;;;;;2.43;2.33;;;17.30;99.90;;;;;;478687;248;28902;-70
2022/09/06 07:05:19;;;;;;;2.60;2.40;;;17.40;99.90;;;;;;474639;250;28957;-69
2022/09/06 07:07:20;;;;;;;2.30;2.10;;;17.50;99.90;;;;;;478967;248;28774;-70
2022/09/06 07:09:22;;;;;;;2.30;2.20;;;17.60;99.90;;;;;;474722;250;29009;-71
2022/09/06 07:11:23;;;;;;;2.60;2.40;;;17.60;99.90;;;;;;479006;248;29295;-69
2022/09/06 07:13:24;;;;;;;2.70;2.50;;;17.70;99.90;;;;;;474764;250;29380;-69
2022/09/06 07:15:25;;;;;;;2.40;2.30;;;17.80;99.90;;;;;;479014;248;30008;-69
2022/09/06 07:17:27;;;;;;;2.63;2.53;;;17.90;99.90;;;;;;474722;250;28871;-70
2022/09/06 07:19:28;;;;;;;2.83;2.70;;;17.90;99.90;;;;;;479028;248;28876;-71
2022/09/06 07:21:29;;;;;;;2.97;2.77;;;17.90;99.90;;;;;;474801;250;28856;-70
2022/09/06 07:23:30;;;;;;;2.77;2.67;;;18.00;99.90;;;;;;479034;248;28809;-71
2022/09/06 07:25:32;;;;;;;2.73;2.60;;;18.00;99.90;;;;;;474757;250;29043;-68
2022/09/06 07:27:33;;;;;;;2.70;2.60;;;18.00;99.90;;;;;;478947;248;28784;-70
2022/09/06 07:29:34;;;;;;;3.33;3.03;;;18.10;99.90;;;;;;474779;249;29002;-71
2022/09/06 07:31:36;;;;;;;2.17;2.07;;;18.10;99.90;;;;;;479032;248;28850;-69
2022/09/06 07:33:37;;;;;;;2.33;2.23;;;18.10;99.90;;;;;;474748;249;28917;-70
2022/09/06 07:35:38;;;;;;;4.13;2.33;;;18.10;99.90;;;;;;479009;248;29728;-69
2022/09/06 07:37:39;;;;;;;2.90;2.70;;;18.10;99.90;;;;;;474715;250;29297;-70
2022/09/06 07:39:41;;;;;;;3.20;2.40;;;18.10;99.90;;;;;;479009;248;29360;-70
2022/09/06 07:41:42;;;;;;;2.70;2.50;;;18.20;99.90;;;;;;474767;249;29404;-69
2022/09/06 07:43:43;;;;;;;3.27;3.07;;;18.20;99.90;;;;;;478935;248;28893;-69
2022/09/06 07:45:44;;;;;;;2.53;2.40;;;18.30;99.90;;;;;;474771;249;28920;-69
2022/09/06 07:47:46;;;;;;;2.63;2.43;;;18.30;99.90;;;;;;478970;248;28767;-70
2022/09/06 07:49:47;;;;;;;2.57;2.43;;;18.40;99.90;;;;;;474647;249;28896;-71
2022/09/06 07:51:48;;;;;;;3.03;2.83;;;18.40;99.90;;;;;;479013;248;28875;-69
2022/09/06 07:53:54;;;;;;;2.90;2.43;;;18.50;99.90;;;;;;474746;250;28920;-69
2022/09/06 07:55:54;;;;;;;2.50;2.30;;;18.60;99.90;;;;;;478953;248;29258;-69
2022/09/06 07:57:55;;;;;;;2.80;2.60;;;18.80;99.90;;;;;;474721;249;29363;-70
2022/09/06 07:59:56;;;;;;;2.60;2.40;;;18.80;99.90;;;;;;479026;248;29258;-69
2022/09/06 08:01:57;;;;;;;3.03;2.70;;;19.00;99.90;;;;;;474760;250;28881;-69
2022/09/06 08:03:59;;;;;;;2.87;2.67;;;19.10;99.90;;;;;;479007;248;28890;-72
2022/09/06 08:06:00;;;;;;;3.40;2.80;;;19.10;99.90;;;;;;474745;250;28867;-69
2022/09/06 08:08:01;;;;;;;2.80;2.60;;;19.20;99.90;;;;;;478980;248;28818;-69
2022/09/06 08:10:02;;;;;;;2.83;2.63;;;19.30;99.90;;;;;;474728;250;28951;-69
2022/09/06 08:12:06;;;;;;;3.83;2.83;;;19.30;99.90;;;;;;479002;248;28891;-69
2022/09/06 08:14:05;;;;;;;3.10;2.90;;;19.50;99.90;;;;;;474695;249;28909;-72
2022/09/06 08:16:06;;;;;;;3.17;2.87;;;19.40;99.90;;;;;;478953;248;28801;-73
2022/09/06 08:18:07;;;;;;;2.60;2.40;;;19.60;99.90;;;;;;474769;250;29482;-70
2022/09/06 08:20:09;;;;;;;2.83;2.63;;;19.60;99.90;;;;;;479013;248;29997;-69
2022/09/06 08:22:10;;;;;;;2.80;2.60;;;19.70;99.90;;;;;;474765;249;29324;-69
2022/09/06 08:24:11;;;;;;;3.10;2.90;;;19.80;99.90;;;;;;479017;248;29270;-72
2022/09/06 08:26:12;;;;;;;2.70;2.53;;;19.90;99.90;;;;;;474711;249;28870;-69
2022/09/06 08:28:14;;;;;;;2.80;2.60;;;19.90;99.90;;;;;;479044;248;28800;-69
2022/09/06 08:30:15;;;;;;;2.60;2.50;;;20.00;99.90;;;;;;477363;241;28842;-68
2022/09/06 08:32:18;;;;;;;3.30;3.10;;;20.00;99.90;;;;;;478987;247;28755;-69
2022/09/06 08:34:18;;;;;;;2.97;2.67;;;20.10;99.90;;;;;;478918;248;28768;-74
2022/09/06 08:36:19;;;;;;;2.93;2.73;;;20.30;99.90;;;;;;478934;248;28845;-69
2022/09/06 08:38:20;;;;;;;3.77;3.27;;;20.30;99.90;;;;;;478980;248;28842;-70
2022/09/06 08:40:23;;;;;;;3.50;2.57;;;20.30;99.90;;;;;;478992;248;28717;-69
2022/09/06 08:42:23;;;;;;;3.33;3.03;;;20.40;99.90;;;;;;478832;248;29212;-69
2022/09/06 08:44:24;;;;;;;3.70;3.33;;;20.40;99.90;;;;;;479007;248;29319;-72
2022/09/06 08:46:25;;;;;;;3.20;3.00;;;20.50;99.90;;;;;;478938;247;29224;-69
2022/09/06 08:48:26;;;;;;;3.10;2.90;;;20.50;99.90;;;;;;478997;248;29293;-69
2022/09/06 08:50:28;;;;;;;3.20;3.00;;;20.50;99.90;;;;;;478999;248;28712;-69
2022/09/06 08:52:29;;;;;;;2.93;2.67;;;20.70;99.90;;;;;;478961;248;28731;-69
2022/09/06 08:54:30;;;;;;;2.80;2.60;;;20.70;99.90;;;;;;479004;248;28819;-73
2022/09/06 08:56:31;;;;;;;3.27;2.70;;;20.80;99.90;;;;;;478925;248;28706;-69
2022/09/06 08:58:33;;;;;;;3.50;3.20;;;20.80;99.90;;;;;;478997;248;28771;-69
2022/09/06 09:00:34;;;;;;;2.90;2.70;;;20.70;99.90;;;;;;478958;248;28724;-69
2022/09/06 09:02:35;;;;;;;3.33;3.10;;;20.80;99.90;;;;;;478978;248;28762;-69
2022/09/06 09:04:36;;;;;;;2.90;2.60;;;20.90;99.90;;;;;;478976;247;28767;-69
2022/09/06 09:06:38;;;;;;;2.97;2.77;;;20.90;99.90;;;;;;478931;248;28803;-69
2022/09/06 09:08:39;;;;;;;3.33;3.07;;;20.90;99.90;;;;;;478994;248;29300;-70
2022/09/06 09:10:43;;;;;;;3.20;2.97;;;;;;;;;;479002;248;29295;-70
2022/09/06 09:12:44;;;;;;;3.07;2.77;;;21.00;99.90;;;;;;479013;246;26877;-71
2022/09/06 09:14:47;;;;;;;5.33;2.90;;;21.20;99.90;;;;;;479007;248;28880;-70
2022/09/06 09:16:47;;;;;;;4.20;2.90;;;21.30;99.90;;;;;;478868;248;28763;-69
2022/09/06 09:18:48;;;;;;;3.63;2.70;;;21.20;99.90;;;;;;478994;248;29255;-69
2022/09/06 09:20:49;;;;;;;4.23;3.40;;;21.20;99.90;;;;;;478999;248;29300;-69
2022/09/06 09:22:50;;;;;;;4.97;3.17;;;21.30;99.90;;;;;;478967;248;29242;-73
2022/09/06 09:24:52;;;;;;;5.13;3.40;;;21.30;99.90;;;;;;478944;248;29178;-70
2022/09/06 09:26:53;;;;;;;3.70;3.10;;;21.30;99.90;;;;;;478888;248;28761;-70
2022/09/06 09:28:54;;;;;;;3.33;3.03;;;21.40;99.90;;;;;;476319;248;36128;-69
2022/09/06 09:30:55;;;;;;;2.90;2.70;;;21.40;99.90;;;;;;478967;248;27414;-70
2022/09/06 09:32:57;;;;;;;3.43;2.90;;;21.30;99.90;;;;;;478977;247;28848;-72
2022/09/06 09:34:58;;;;;;;6.03;3.17;;;21.30;99.90;;;;;;478978;248;28742;-69
2022/09/06 09:36:59;;;;;;;3.03;2.83;;;21.40;99.90;;;;;;478920;248;28839;-70
2022/09/06 09:39:00;;;;;;;4.50;3.10;;;21.50;99.90;;;;;;478974;248;28783;-69
2022/09/06 09:41:02;;;;;;;6.57;3.23;;;21.60;99.90;;;;;;478971;248;28712;-71
2022/09/06 09:43:03;;;;;;;2.80;2.60;;;21.70;99.90;;;;;;478846;248;29251;-70
2022/09/06 09:45:04;;;;;;;2.87;2.67;;;21.80;99.90;;;;;;478953;248;29278;-69
2022/09/06 09:47:05;;;;;;;5.40;2.87;;;21.90;99.90;;;;;;478868;248;29240;-70
2022/09/06 09:49:07;;;;;;;3.30;2.47;;;21.90;99.90;;;;;;479010;248;28783;-69
2022/09/06 09:51:08;;;;;;;2.77;2.57;;;21.90;99.90;;;;;;478979;248;28707;-70
2022/09/06 09:53:09;;;;;;;2.67;2.47;;;22.00;99.90;;;;;;478972;248;28803;-71
2022/09/06 09:55:10;;;;;;;3.17;2.57;;;22.00;99.90;;;;;;478963;248;28771;-69
2022/09/06 09:57:12;;;;;;;2.70;2.50;;;22.00;99.90;;;;;;478888;248;28763;-71
2022/09/06 09:59:13;;;;;;;2.50;2.30;;;22.10;99.90;;;;;;478960;248;28770;-70
2022/09/06 10:01:14;;;;;;;2.63;2.37;;;22.10;99.90;;;;;;478978;248;28814;-70
2022/09/06 10:03:15;;;;;;;2.37;2.17;;;22.10;99.90;;;;;;478967;248;28759;-71
2022/09/06 10:05:17;;;;;;;5.20;2.60;;;22.10;99.90;;;;;;478960;248;28709;-69
2022/09/06 10:07:18;;;;;;;3.60;2.90;;;22.30;99.90;;;;;;478885;248;29224;-70
2022/09/06 10:09:19;;;;;;;3.43;2.97;;;22.30;99.90;;;;;;478979;248;29435;-73
2022/09/06 10:11:20;;;;;;;3.33;3.03;;;22.40;99.90;;;;;;478982;247;29179;-69
2022/09/06 10:13:22;;;;;;;2.97;2.47;;;22.40;99.90;;;;;;478989;248;29200;-70
2022/09/06 10:15:23;;;;;;;2.50;2.30;;;22.50;99.90;;;;;;478995;248;28708;-69
2022/09/06 10:17:24;;;;;;;3.43;3.13;;;22.50;99.90;;;;;;478899;248;28741;-70
2022/09/06 10:19:25;;;;;;;2.77;2.57;;;22.50;99.90;;;;;;479002;246;29260;-72
2022/09/06 10:21:28;;;;;;;3.87;3.00;;;22.60;99.90;;;;;;478969;248;29238;-69
2022/09/06 10:23:28;;;;;;;4.67;3.07;;;22.60;99.90;;;;;;478935;248;28774;-70
2022/09/06 10:25:29;;;;;;;4.77;2.97;;;22.70;99.90;;;;;;478999;248;28811;-70
2022/09/06 10:27:32;;;;;;;3.50;2.87;;;22.80;99.90;;;;;;478918;248;28710;-70
2022/09/06 10:29:32;;;;;;;2.83;2.57;;;22.80;99.90;;;;;;478944;248;28748;-71
2022/09/06 10:31:33;;;;;;;3.63;2.60;;;23.00;99.90;;;;;;478956;248;28787;-69